TimeEST,TemperatureF,Dew PointF,Humidity,Sea Level PressureIn,VisibilityMPH,Wind Direction,Wind SpeedMPH,Gust SpeedMPH,PrecipitationIn,Events,Conditions,WindDirDegrees,DateUTC
12:53 AM,28.0,24.1,85,30.43,10.0,SSW,5.8,-,N/A,,Clear,210,2013-03-09 05:53:00
1:53 AM,28.9,25.0,85,30.43,10.0,SW,3.5,-,N/A,,Clear,220,2013-03-09 06:53:00
2:53 AM,27.0,25.0,92,30.41,9.0,SSW,3.5,-,N/A,,Clear,210,2013-03-09 07:53:00
3:53 AM,26.1,24.1,92,30.39,8.0,SW,4.6,-,N/A,,Clear,230,2013-03-09 08:53:00
4:53 AM,24.1,21.9,91,30.40,8.0,SSW,4.6,-,N/A,,Clear,210,2013-03-09 09:53:00
5:53 AM,25.0,21.9,88,30.41,8.0,Calm,Calm,-,N/A,,Clear,0,2013-03-09 10:53:00
6:53 AM,23.0,21.0,92,30.43,7.0,Calm,Calm,-,N/A,,Clear,0,2013-03-09 11:53:00
7:53 AM,27.0,24.1,89,30.43,8.0,Calm,Calm,-,N/A,,Clear,0,2013-03-09 12:53:00
9:53 AM,36.0,30.0,79,30.42,9.0,Calm,Calm,-,N/A,,Clear,0,2013-03-09 14:53:00
10:53 AM,33.1,30.0,89,30.40,3.0,NNW,8.1,-,N/A,,Clear,340,2013-03-09 15:53:00
10:55 AM,33.8,30.2,87,30.37,2.0,NNW,8.1,-,N/A,,Partly Cloudy,340,2013-03-09 15:55:00
11:01 AM,32.0,30.2,93,30.37,1.0,NNW,8.1,-,N/A,,Mist,340,2013-03-09 16:01:00
11:10 AM,30.2,28.4,93,30.37,0.5,NNW,6.9,-,N/A,Fog,Light Freezing Fog,340,2013-03-09 16:10:00
11:21 AM,32.0,30.2,93,30.37,1.2,North,6.9,-,N/A,,Mostly Cloudy,350,2013-03-09 16:21:00
11:33 AM,33.8,30.2,87,30.37,2.5,North,6.9,-,N/A,,Mostly Cloudy,350,2013-03-09 16:33:00
11:38 AM,33.8,30.2,87,30.37,2.5,NNW,6.9,-,N/A,,Scattered Clouds,340,2013-03-09 16:38:00
11:43 AM,32.0,30.2,93,30.37,1.0,North,6.9,-,N/A,,Mist,350,2013-03-09 16:43:00
11:53 AM,33.1,30.0,89,30.40,1.5,North,6.9,-,N/A,,Mostly Cloudy,360,2013-03-09 16:53:00
11:56 AM,33.8,30.2,87,30.37,3.0,North,6.9,-,N/A,,Mostly Cloudy,350,2013-03-09 16:56:00
11:59 AM,33.8,30.2,87,30.37,1.8,North,6.9,-,N/A,,Mostly Cloudy,360,2013-03-09 16:59:00
12:06 PM,32.0,30.2,93,30.37,0.8,North,6.9,-,N/A,,Mostly Cloudy,350,2013-03-09 17:06:00
12:32 PM,32.0,30.2,93,30.36,1.2,NNW,6.9,-,N/A,,Overcast,340,2013-03-09 17:32:00
12:53 PM,32.0,30.0,92,30.39,1.2,North,5.8,-,N/A,,Scattered Clouds,360,2013-03-09 17:53:00
12:57 PM,33.8,30.2,87,30.36,3.0,North,5.8,-,N/A,,Partly Cloudy,350,2013-03-09 17:57:00
1:53 PM,35.1,30.0,82,30.35,9.0,North,4.6,-,N/A,,Clear,10,2013-03-09 18:53:00
2:53 PM,37.9,30.9,76,30.33,10.0,NNW,5.8,-,N/A,,Clear,340,2013-03-09 19:53:00
3:53 PM,39.0,30.0,70,30.31,10.0,North,5.8,-,N/A,,Clear,350,2013-03-09 20:53:00
4:53 PM,39.9,28.0,63,30.29,10.0,NNE,3.5,-,N/A,,Clear,30,2013-03-09 21:53:00
5:53 PM,36.0,28.9,76,30.27,10.0,North,4.6,-,N/A,,Clear,360,2013-03-09 22:53:00
6:53 PM,36.0,28.0,73,30.27,10.0,East,3.5,-,N/A,,Clear,80,2013-03-09 23:53:00
7:53 PM,36.0,28.9,76,30.25,10.0,NE,3.5,-,N/A,,Clear,50,2013-03-10 00:53:00
8:53 PM,35.1,28.9,78,30.23,10.0,Calm,Calm,-,N/A,,Clear,0,2013-03-10 01:53:00
9:53 PM,33.1,27.0,78,30.21,10.0,Calm,Calm,-,N/A,,Clear,0,2013-03-10 02:53:00
10:53 PM,30.9,26.1,82,30.19,10.0,Calm,Calm,-,N/A,,Clear,0,2013-03-10 03:53:00
11:53 PM,44.1,23.0,43,30.15,10.0,Calm,Calm,-,N/A,,Clear,0,2013-03-10 04:53:00